createdAt,value
2018-03-25T00:02:25.909Z,76.20
2018-03-25T00:04:53.373Z,76.30
2018-03-25T00:07:20.831Z,76.10
2018-03-25T00:09:48.308Z,76.10
2018-03-25T00:12:15.771Z,76.10
2018-03-25T00:14:43.276Z,76.10
2018-03-25T00:17:10.743Z,76.20
2018-03-25T00:19:38.202Z,76.10
2018-03-25T00:22:05.657Z,76.20
2018-03-25T00:24:33.128Z,76.30
2018-03-25T00:27:00.596Z,76.70
2018-03-25T00:29:28.061Z,77.20
2018-03-25T00:31:55.544Z,77.10
2018-03-25T00:34:23.802Z,76.70
2018-03-25T00:36:51.276Z,76.70
2018-03-25T00:39:18.745Z,76.50
2018-03-25T00:42:06.286Z,76.60
2018-03-25T00:44:33.765Z,76.70
2018-03-25T00:47:01.228Z,77.60
2018-03-25T00:49:28.703Z,78.30
2018-03-25T00:51:56.160Z,78.90
2018-03-25T00:57:21.237Z,79.00
2018-03-25T00:59:49.477Z,78.60
2018-03-25T01:02:16.934Z,78.60
2018-03-25T01:04:44.471Z,78.10
2018-03-25T01:07:12.653Z,77.80
2018-03-25T01:09:40.865Z,77.60
2018-03-25T01:12:09.099Z,77.80
2018-03-25T01:14:36.571Z,77.60
2018-03-25T01:17:04.024Z,77.30
2018-03-25T01:19:31.492Z,77.60
2018-03-25T01:22:00.466Z,78.30
2018-03-25T01:24:34.205Z,77.50
2018-03-25T01:27:01.683Z,77.50
2018-03-25T01:29:29.908Z,78.90
2018-03-25T01:31:57.378Z,78.90
2018-03-25T01:34:25.220Z,79.10
2018-03-25T01:36:53.092Z,79.10
2018-03-25T01:39:20.857Z,78.70
2018-03-25T01:41:48.819Z,78.80
2018-03-25T01:44:16.682Z,79.70
2018-03-25T01:46:44.150Z,80.00
2018-03-25T01:49:11.624Z,79.90
2018-03-25T01:51:40.999Z,79.80
2018-03-25T01:54:08.452Z,79.80
2018-03-25T01:56:35.937Z,80.30
2018-03-25T01:59:03.401Z,80.10
2018-03-25T02:01:30.889Z,80.10
2018-03-25T02:03:58.351Z,80.10
2018-03-25T02:06:25.858Z,79.90
2018-03-25T02:08:53.310Z,79.90
2018-03-25T02:11:20.756Z,80.00
2018-03-25T02:13:48.230Z,80.10
2018-03-25T02:16:15.694Z,80.90
2018-03-25T02:18:43.552Z,81.00
2018-03-25T02:21:11.721Z,81.30
2018-03-25T02:23:39.595Z,80.90
2018-03-25T02:26:07.460Z,80.80
2018-03-25T02:28:35.327Z,80.50
2018-03-25T02:31:04.114Z,80.20
2018-03-25T02:33:32.086Z,80.20
2018-03-25T02:35:59.951Z,79.80
2018-03-25T02:41:23.959Z,79.70
2018-03-25T02:43:51.712Z,79.70
2018-03-25T02:46:19.685Z,79.90
2018-03-25T02:48:47.154Z,80.00
2018-03-25T02:51:14.609Z,80.00
2018-03-25T02:53:42.078Z,80.00
2018-03-25T02:56:09.539Z,80.00
2018-03-25T02:58:37.018Z,80.00
2018-03-25T03:01:04.479Z,80.50
2018-03-25T03:03:31.942Z,80.50
2018-03-25T03:05:59.409Z,80.30
2018-03-25T03:08:27.654Z,80.50
2018-03-25T03:10:55.124Z,80.40
2018-03-25T03:13:22.591Z,80.50
2018-03-25T03:15:50.057Z,80.00
2018-03-25T03:18:18.066Z,79.60
2018-03-25T03:20:45.764Z,79.80
2018-03-25T03:23:13.764Z,79.80
2018-03-25T03:25:55.389Z,79.20
2018-03-25T03:28:23.258Z,79.30
2018-03-25T03:30:51.330Z,79.30
2018-03-25T03:33:19.406Z,79.60
2018-03-25T03:35:47.269Z,79.60
2018-03-25T03:38:15.341Z,79.50
2018-03-25T03:40:43.209Z,80.10
2018-03-25T03:43:11.077Z,80.40
2018-03-25T03:45:38.947Z,80.30
2018-03-25T03:48:06.917Z,80.10
2018-03-25T03:50:34.780Z,79.90
2018-03-25T03:53:02.650Z,79.70
2018-03-25T03:55:30.625Z,79.60
2018-03-25T03:57:58.485Z,79.60
2018-03-25T04:00:26.457Z,79.80
2018-03-25T04:02:54.322Z,80.30
2018-03-25T04:05:21.988Z,80.60
2018-03-25T04:07:50.057Z,80.80
2018-03-25T04:10:17.925Z,81.40
2018-03-25T04:12:45.894Z,81.50
2018-03-25T04:15:14.082Z,81.00
2018-03-25T04:17:41.945Z,80.80
2018-03-25T04:20:09.812Z,80.50
2018-03-25T04:22:37.675Z,80.30
2018-03-25T04:25:06.361Z,80.00
2018-03-25T04:27:34.228Z,80.60
2018-03-25T04:30:02.920Z,80.70
2018-03-25T04:32:30.886Z,80.70
2018-03-25T04:34:58.753Z,81.00
2018-03-25T04:37:26.717Z,81.30
2018-03-25T04:39:54.585Z,81.30
2018-03-25T04:42:22.554Z,81.20
2018-03-25T04:44:50.426Z,81.10
2018-03-25T04:47:18.294Z,80.80
2018-03-25T04:49:46.161Z,80.80
2018-03-25T04:52:14.128Z,81.40
2018-03-25T04:54:42.102Z,82.10
2018-03-25T04:57:09.789Z,82.60
2018-03-25T04:59:37.634Z,83.00
2018-03-25T05:02:05.492Z,82.60
2018-03-25T05:04:33.466Z,82.30
2018-03-25T05:07:01.330Z,82.20
2018-03-25T05:09:29.130Z,81.80
2018-03-25T05:11:57.072Z,81.30
2018-03-25T05:14:24.841Z,82.00
2018-03-25T05:16:52.703Z,81.10
2018-03-25T05:19:20.365Z,81.00
2018-03-25T05:21:47.836Z,81.20
2018-03-25T05:24:15.287Z,81.10
2018-03-25T05:26:42.763Z,80.90
2018-03-25T05:29:10.224Z,80.60
2018-03-25T05:31:38.468Z,80.50
2018-03-25T05:34:06.370Z,81.30
2018-03-25T05:36:34.211Z,80.50
2018-03-25T05:39:02.086Z,80.40
2018-03-25T05:41:30.042Z,80.20
2018-03-25T05:46:56.085Z,80.10
2018-03-25T05:49:23.544Z,80.10
2018-03-25T05:51:51.018Z,80.10
2018-03-25T05:54:18.485Z,80.10
2018-03-25T05:56:45.940Z,79.80
2018-03-25T05:59:13.587Z,79.80
2018-03-25T06:01:41.553Z,80.10
2018-03-25T06:04:09.654Z,80.20
2018-03-25T06:06:38.822Z,79.60
2018-03-25T06:09:06.689Z,80.30
2018-03-25T06:11:34.566Z,79.60
2018-03-25T06:14:02.527Z,79.60
2018-03-25T06:16:30.501Z,79.50
2018-03-25T06:18:58.373Z,79.90
2018-03-25T06:21:27.116Z,79.00
2018-03-25T06:23:56.043Z,78.70
2018-03-25T06:26:24.743Z,79.10
2018-03-25T06:28:53.466Z,79.30
2018-03-25T06:31:21.390Z,79.30
2018-03-25T06:33:48.964Z,79.20
2018-03-25T06:36:16.430Z,79.00
2018-03-25T06:38:43.915Z,79.00
2018-03-25T06:41:11.376Z,79.00
2018-03-25T06:43:38.848Z,79.00
2018-03-25T06:46:07.118Z,79.00
2018-03-25T06:48:36.079Z,78.80
2018-03-25T06:51:03.935Z,78.70
2018-03-25T06:53:31.595Z,78.50
2018-03-25T06:55:59.077Z,78.30
2018-03-25T06:58:26.554Z,78.50
2018-03-25T07:00:54.565Z,78.40
2018-03-25T07:03:22.231Z,78.50
2018-03-25T07:05:50.100Z,78.50
2018-03-25T07:08:17.775Z,78.20
2018-03-25T07:10:45.835Z,78.60
2018-03-25T07:13:13.713Z,78.90
2018-03-25T07:15:41.576Z,78.80
2018-03-25T07:18:09.539Z,78.50
2018-03-25T07:20:37.401Z,78.60
2018-03-25T07:28:53.730Z,78.00
2018-03-25T07:31:21.206Z,77.90
2018-03-25T07:33:48.673Z,78.00
2018-03-25T07:36:16.140Z,77.90
2018-03-25T07:38:43.603Z,77.70
2018-03-25T07:41:11.068Z,77.30
2018-03-25T07:43:38.530Z,77.00
2018-03-25T07:46:06.459Z,77.00
2018-03-25T07:48:34.131Z,76.50
2018-03-25T07:51:01.624Z,76.20
2018-03-25T07:53:29.113Z,76.40
2018-03-25T07:55:57.334Z,76.10
2018-03-25T07:58:24.834Z,76.10
2018-03-25T08:00:53.058Z,75.90
2018-03-25T08:03:20.526Z,75.90
2018-03-25T08:05:48.007Z,75.60
2018-03-25T08:08:15.832Z,75.30
2018-03-25T08:10:43.803Z,74.70
2018-03-25T08:13:11.675Z,74.50
2018-03-25T08:15:39.537Z,73.80
2018-03-25T08:18:08.226Z,73.70
2018-03-25T08:20:36.088Z,73.70
2018-03-25T08:23:03.961Z,73.70
2018-03-25T08:25:31.835Z,73.60
2018-03-25T08:28:00.026Z,73.50
2018-03-25T08:30:27.870Z,73.40
2018-03-25T08:32:55.734Z,72.50
2018-03-25T08:35:23.707Z,72.20
2018-03-25T08:37:51.775Z,72.10
2018-03-25T08:40:19.790Z,71.90
2018-03-25T08:42:47.718Z,71.70
2018-03-25T08:45:15.586Z,71.10
2018-03-25T08:47:43.550Z,70.80
2018-03-25T08:50:11.417Z,70.50
2018-03-25T09:04:11.417Z,68.80
2018-03-25T09:06:39.390Z,68.80
2018-03-25T09:09:07.060Z,68.80
2018-03-25T09:11:34.761Z,68.50
2018-03-25T09:14:02.684Z,68.00
2018-03-25T09:16:30.554Z,68.10
2018-03-25T09:18:58.421Z,68.00
2018-03-25T09:21:26.292Z,68.00
2018-03-25T09:23:54.256Z,67.90
2018-03-25T09:26:21.734Z,67.70
2018-03-25T09:28:49.199Z,67.30
2018-03-25T09:31:16.681Z,67.30
2018-03-25T09:33:44.138Z,67.00
2018-03-25T09:36:11.615Z,66.50
2018-03-25T09:38:39.844Z,65.90
2018-03-25T09:41:07.311Z,65.90
2018-03-25T09:43:34.827Z,65.80
2018-03-25T09:46:02.289Z,65.80
2018-03-25T09:48:29.750Z,66.10
2018-03-25T09:50:57.230Z,65.90
2018-03-25T09:53:24.698Z,65.90
2018-03-25T09:55:52.177Z,65.70
2018-03-25T09:58:19.630Z,65.90
2018-03-25T10:00:48.901Z,64.70
2018-03-25T10:03:21.987Z,65.20
2018-03-25T10:05:49.473Z,65.10
2018-03-25T10:08:16.945Z,65.20
2018-03-25T10:10:44.405Z,65.00
2018-03-25T10:13:12.650Z,65.10
2018-03-25T10:15:40.124Z,65.00
2018-03-25T10:18:07.606Z,64.70
2018-03-25T10:20:35.843Z,63.20
2018-03-25T10:23:03.309Z,63.20
2018-03-25T10:25:30.787Z,63.00
2018-03-25T10:27:58.257Z,61.90
2018-03-25T10:30:26.499Z,62.50
2018-03-25T10:32:53.979Z,62.50
2018-03-25T10:35:21.436Z,63.50
2018-03-25T10:37:48.950Z,63.60
2018-03-25T10:40:17.149Z,62.50
2018-03-25T10:42:44.614Z,62.50
2018-03-25T10:45:12.084Z,62.90
2018-03-25T10:47:39.560Z,62.90
2018-03-25T10:50:07.792Z,62.80
2018-03-25T10:52:35.261Z,62.80
2018-03-25T10:55:02.726Z,63.10
2018-03-25T10:57:30.193Z,63.00
2018-03-25T10:59:57.651Z,63.00
2018-03-25T11:02:25.123Z,62.60
2018-03-25T11:04:53.354Z,62.40
2018-03-25T11:07:20.822Z,62.40
2018-03-25T11:09:48.284Z,61.50
2018-03-25T11:12:15.769Z,61.50
2018-03-25T11:14:44.009Z,61.80
2018-03-25T11:17:11.653Z,61.80
2018-03-25T11:19:39.145Z,60.70
2018-03-25T11:22:06.627Z,61.00
2018-03-25T11:24:34.129Z,60.60
2018-03-25T11:27:01.581Z,60.10
2018-03-25T11:29:29.090Z,60.30
2018-03-25T11:31:56.620Z,59.80
2018-03-25T11:34:24.802Z,59.90
2018-03-25T11:36:52.642Z,59.90
2018-03-25T11:39:20.513Z,59.50
2018-03-25T11:41:47.965Z,60.10
2018-03-25T11:44:15.441Z,59.30
2018-03-25T11:46:42.920Z,58.30
2018-03-25T11:49:10.385Z,58.40
2018-03-25T11:51:37.844Z,57.00
2018-03-25T11:54:05.313Z,56.40
2018-03-25T11:56:33.540Z,56.60
2018-03-25T11:59:01.016Z,56.60
2018-03-25T12:01:29.247Z,57.50
2018-03-25T12:03:56.720Z,57.50
2018-03-25T12:06:24.179Z,57.40
2018-03-25T12:08:51.641Z,57.30
2018-03-25T12:11:19.095Z,57.10
2018-03-25T12:13:46.569Z,56.60
2018-03-25T12:16:14.024Z,55.90
2018-03-25T12:18:41.502Z,55.90
2018-03-25T12:21:08.963Z,55.50
2018-03-25T12:26:36.536Z,55.00
2018-03-25T12:29:04.014Z,55.00
2018-03-25T12:31:31.492Z,54.20
2018-03-25T12:33:59.732Z,57.10
2018-03-25T12:36:27.189Z,57.10
2018-03-25T12:38:54.662Z,58.00
2018-03-25T12:41:22.137Z,58.70
2018-03-25T12:43:50.375Z,58.90
2018-03-25T12:46:17.834Z,58.90
2018-03-25T12:48:45.314Z,59.20
2018-03-25T12:51:12.770Z,58.70
2018-03-25T12:53:40.233Z,58.60
2018-03-25T12:56:09.279Z,57.90
2018-03-25T12:58:36.741Z,57.90
2018-03-25T13:01:04.204Z,57.80
2018-03-25T13:03:31.665Z,55.40
2018-03-25T13:05:59.118Z,55.80
2018-03-25T13:08:26.587Z,57.10
2018-03-25T13:10:54.062Z,57.40
2018-03-25T13:13:21.570Z,58.20
2018-03-25T13:15:49.099Z,59.90
2018-03-25T13:18:16.505Z,59.90
2018-03-25T13:20:43.986Z,60.50
2018-03-25T13:23:12.218Z,60.80
2018-03-25T13:25:39.690Z,60.80
2018-03-25T13:28:07.156Z,60.90
2018-03-25T13:30:34.639Z,60.30
2018-03-25T13:33:02.117Z,59.80
2018-03-25T13:35:29.586Z,60.00
2018-03-25T13:37:57.813Z,60.90
2018-03-25T13:40:25.293Z,60.90
2018-03-25T13:42:52.755Z,60.90
2018-03-25T13:45:20.222Z,61.20
2018-03-25T13:47:47.696Z,61.00
2018-03-25T13:50:15.934Z,60.70
2018-03-25T13:52:43.396Z,60.70
2018-03-25T13:55:10.845Z,60.80
2018-03-25T13:57:38.315Z,60.30
2018-03-25T14:00:05.772Z,60.40
2018-03-25T14:02:33.248Z,60.40
2018-03-25T14:05:00.716Z,60.20
2018-03-25T14:07:28.973Z,60.90
2018-03-25T14:09:56.439Z,60.90
2018-03-25T14:12:23.913Z,60.60
2018-03-25T14:14:52.149Z,60.90
2018-03-25T14:17:19.610Z,60.90
2018-03-25T14:19:47.075Z,60.90
2018-03-25T14:22:14.564Z,61.10
2018-03-25T14:24:42.792Z,61.90
2018-03-25T14:27:10.257Z,61.80
2018-03-25T14:29:37.762Z,61.40
2018-03-25T14:32:05.999Z,62.00
2018-03-25T14:34:33.470Z,62.00
2018-03-25T14:37:00.940Z,61.80
2018-03-25T14:39:28.389Z,61.50
2018-03-25T14:41:55.861Z,61.10
2018-03-25T14:44:24.093Z,61.60
2018-03-25T14:46:51.555Z,61.60
2018-03-25T14:49:19.023Z,61.10
2018-03-25T14:51:46.503Z,61.90
2018-03-25T14:54:13.959Z,62.10
2018-03-25T14:56:41.441Z,61.90
2018-03-25T14:59:09.669Z,61.30
2018-03-25T15:01:37.150Z,61.20
2018-03-25T15:04:04.630Z,61.50
2018-03-25T15:06:32.845Z,62.90
2018-03-25T15:09:00.320Z,62.80
2018-03-25T15:11:31.182Z,62.80
2018-03-25T15:13:58.702Z,63.20
2018-03-25T15:16:26.187Z,63.50
2018-03-25T15:18:53.653Z,62.80
2018-03-25T15:21:21.116Z,62.70
2018-03-25T15:23:48.587Z,63.60
2018-03-25T15:26:16.825Z,62.60
2018-03-25T15:28:44.310Z,62.50
2018-03-25T15:31:11.778Z,62.70
2018-03-25T15:33:39.226Z,61.40
2018-03-25T15:36:06.680Z,61.10
2018-03-25T15:38:34.141Z,60.90
2018-03-25T15:41:02.374Z,61.60
2018-03-25T15:43:29.835Z,61.60
2018-03-25T15:45:58.050Z,61.50
2018-03-25T15:48:25.516Z,61.50
2018-03-25T15:50:53.731Z,61.50
2018-03-25T15:53:21.195Z,61.50
2018-03-25T15:55:48.647Z,61.30
2018-03-25T15:58:16.108Z,61.90
2018-03-25T16:00:43.576Z,62.40
2018-03-25T16:03:11.025Z,62.50
2018-03-25T16:05:38.479Z,62.20
2018-03-25T16:08:05.928Z,62.00
2018-03-25T16:10:33.416Z,61.30
2018-03-25T16:13:01.633Z,62.70
2018-03-25T16:15:29.859Z,62.50
2018-03-25T16:17:57.315Z,62.50
2018-03-25T16:20:24.786Z,61.90
2018-03-25T16:22:52.248Z,62.00
2018-03-25T16:25:19.700Z,62.60
2018-03-25T16:27:47.158Z,62.80
2018-03-25T16:30:14.625Z,63.00
2018-03-25T16:32:42.090Z,63.10
2018-03-25T16:35:09.551Z,63.10
2018-03-25T16:37:37.015Z,63.20
2018-03-25T16:40:04.486Z,63.50
2018-03-25T16:42:32.698Z,64.20
2018-03-25T16:45:00.156Z,63.40
2018-03-25T16:47:27.608Z,63.90
2018-03-25T16:49:55.076Z,64.10
2018-03-25T16:52:22.525Z,64.20
2018-03-25T16:54:49.989Z,64.00
2018-03-25T16:57:17.468Z,64.40
2018-03-25T16:59:44.941Z,64.90
2018-03-25T17:02:12.385Z,64.90
2018-03-25T17:04:39.850Z,65.00
2018-03-25T17:07:07.325Z,65.60
2018-03-25T17:09:34.825Z,66.00
2018-03-25T17:12:02.292Z,66.00
2018-03-25T17:14:30.998Z,65.90
2018-03-25T17:16:58.610Z,66.20
2018-03-25T17:19:34.158Z,66.60
2018-03-25T17:22:02.379Z,66.90
2018-03-25T17:24:29.871Z,66.90
2018-03-25T17:26:57.360Z,67.10
2018-03-25T17:29:24.847Z,67.20
2018-03-25T17:31:52.322Z,67.50
2018-03-25T17:34:20.546Z,68.00
2018-03-25T17:36:48.768Z,68.00
2018-03-25T17:39:16.226Z,68.00
2018-03-25T17:41:43.697Z,68.00
2018-03-25T17:44:11.153Z,68.30
2018-03-25T17:46:38.617Z,68.60
2018-03-25T17:49:06.090Z,68.70
2018-03-25T17:51:33.552Z,68.90
2018-03-25T17:54:01.009Z,69.00
2018-03-25T17:56:28.467Z,69.10
2018-03-25T17:58:56.686Z,69.70
2018-03-25T18:01:24.147Z,69.70
2018-03-25T18:03:51.605Z,69.70
2018-03-25T18:06:19.059Z,69.50
2018-03-25T18:08:46.523Z,69.50
2018-03-25T18:11:13.980Z,69.90
2018-03-25T18:13:41.652Z,70.00
2018-03-25T18:16:09.131Z,70.00
2018-03-25T18:18:45.058Z,70.00
2018-03-25T18:21:31.462Z,70.20
2018-03-25T18:23:58.936Z,70.20
2018-03-25T18:26:26.395Z,70.30
2018-03-25T18:28:53.858Z,70.50
2018-03-25T18:31:21.312Z,70.60
2018-03-25T18:33:48.770Z,70.90
2018-03-25T18:36:16.234Z,70.90
2018-03-25T18:38:43.702Z,71.10
2018-03-25T18:41:11.159Z,71.30
2018-03-25T18:43:38.621Z,71.50
2018-03-25T18:46:06.085Z,71.40
2018-03-25T18:48:33.548Z,71.40
2018-03-25T18:51:00.998Z,71.60
2018-03-25T18:53:28.455Z,71.90
2018-03-25T18:55:55.903Z,72.50
2018-03-25T18:58:23.365Z,71.70
2018-03-25T19:00:50.823Z,71.50
2018-03-25T19:03:18.280Z,71.80
2018-03-25T19:05:45.726Z,71.80
2018-03-25T19:08:13.196Z,71.60
2018-03-25T19:10:40.672Z,71.70
2018-03-25T19:13:08.142Z,72.00
2018-03-25T19:15:36.361Z,72.00
2018-03-25T19:18:03.829Z,72.00
2018-03-25T19:20:31.328Z,72.00
2018-03-25T19:23:23.747Z,72.00
2018-03-25T19:25:51.227Z,72.00
2018-03-25T19:28:19.449Z,72.00
2018-03-25T19:30:46.924Z,72.00
2018-03-25T19:33:30.297Z,72.00
2018-03-25T19:35:57.793Z,72.30
2018-03-25T19:38:25.259Z,72.10
2018-03-25T19:40:52.738Z,72.50
2018-03-25T19:43:20.340Z,72.50
2018-03-25T19:45:47.881Z,72.60
2018-03-25T19:48:16.199Z,72.70
2018-03-25T19:50:43.728Z,72.70
2018-03-25T19:53:12.037Z,73.10
2018-03-25T19:55:39.578Z,73.10
2018-03-25T19:58:07.276Z,73.20
2018-03-25T20:00:35.026Z,73.40
2018-03-25T20:03:02.615Z,73.60
2018-03-25T20:05:39.955Z,73.70
2018-03-25T20:08:08.316Z,73.90
2018-03-25T20:10:38.867Z,73.90
2018-03-25T20:13:07.130Z,74.20
2018-03-25T20:15:45.325Z,74.10
2018-03-25T20:18:12.889Z,74.10
2018-03-25T20:20:43.400Z,74.20
2018-03-25T20:23:14.203Z,74.40
2018-03-25T20:25:41.717Z,74.50
2018-03-25T20:28:09.339Z,74.60
2018-03-25T20:30:37.631Z,75.10
2018-03-25T20:33:05.174Z,75.00
2018-03-25T20:35:35.753Z,75.10
2018-03-25T20:38:04.082Z,75.30
2018-03-25T20:40:31.648Z,75.30
2018-03-25T20:42:59.210Z,75.50
2018-03-25T20:45:32.940Z,75.80
2018-03-25T20:48:00.507Z,76.00
2018-03-25T20:50:28.031Z,76.40
2018-03-25T20:52:55.550Z,76.50
2018-03-25T20:55:23.922Z,76.90
2018-03-25T20:57:51.444Z,76.80
2018-03-25T21:00:18.912Z,76.80
2018-03-25T21:02:46.390Z,77.10
2018-03-25T21:05:14.634Z,77.40
2018-03-25T21:07:42.101Z,77.40
2018-03-25T21:10:09.569Z,77.50
2018-03-25T21:12:37.033Z,77.60
2018-03-25T21:21:10.028Z,78.40
2018-03-25T21:23:38.267Z,78.60
2018-03-25T21:26:05.719Z,78.50
2018-03-25T21:28:33.188Z,78.80
2018-03-25T21:31:00.691Z,79.00
2018-03-25T21:33:28.120Z,79.10
2018-03-25T21:35:55.599Z,79.50
2018-03-25T21:38:23.066Z,79.80
2018-03-25T21:40:50.527Z,80.40
2018-03-25T21:43:18.000Z,80.70
2018-03-25T21:45:45.463Z,81.00
2018-03-25T21:48:13.711Z,81.10
2018-03-25T21:50:41.177Z,81.10
2018-03-25T21:53:08.654Z,81.10
2018-03-25T21:55:36.110Z,81.10
2018-03-25T21:58:04.354Z,81.10
2018-03-25T22:00:31.816Z,81.10
2018-03-25T22:03:07.139Z,81.10
2018-03-25T22:05:34.604Z,81.30
2018-03-25T22:08:02.087Z,81.20
2018-03-25T22:10:29.551Z,81.20
2018-03-25T22:12:57.011Z,81.20
2018-03-25T22:15:24.470Z,81.20
2018-03-25T22:17:51.954Z,81.20
2018-03-25T22:20:20.192Z,81.30
2018-03-25T22:22:47.666Z,81.30
2018-03-25T22:25:15.125Z,81.30
2018-03-25T22:27:42.596Z,81.50
2018-03-25T22:30:25.565Z,81.70
2018-03-25T22:32:53.030Z,81.60
2018-03-25T22:35:20.494Z,81.70
2018-03-25T22:37:47.972Z,82.00
2018-03-25T22:40:15.438Z,82.30
2018-03-25T22:42:43.689Z,82.70
2018-03-25T22:45:11.149Z,82.60
2018-03-25T22:47:38.609Z,82.80
2018-03-25T22:50:06.089Z,82.80
2018-03-25T22:52:34.325Z,83.30
2018-03-25T22:55:01.807Z,83.20
2018-03-25T22:57:29.281Z,83.30
2018-03-25T22:59:56.749Z,83.40
2018-03-25T23:02:24.990Z,83.50
2018-03-25T23:04:52.464Z,83.40
2018-03-25T23:07:19.946Z,83.40
2018-03-25T23:09:48.186Z,83.60
2018-03-25T23:12:15.664Z,83.60
2018-03-25T23:14:43.130Z,83.60
2018-03-25T23:17:11.382Z,84.00
2018-03-25T23:19:38.857Z,84.00
2018-03-25T23:22:06.340Z,84.00
2018-03-25T23:24:34.576Z,84.20
2018-03-25T23:27:02.044Z,84.20
2018-03-25T23:29:29.517Z,84.40
2018-03-25T23:31:57.757Z,84.70
2018-03-25T23:34:25.982Z,85.00
2018-03-25T23:36:53.446Z,85.00
2018-03-25T23:39:20.901Z,85.00
2018-03-25T23:41:48.377Z,85.30
2018-03-25T23:44:15.851Z,85.30
2018-03-25T23:46:43.329Z,85.30
2018-03-25T23:49:10.799Z,85.30
2018-03-25T23:51:38.270Z,85.40
2018-03-25T23:54:06.509Z,85.70
2018-03-25T23:56:33.983Z,85.70
2018-03-25T23:59:01.454Z,85.80
